sensor_id;sensor_type;location;lat;lon;timestamp;P1;durP1;ratioP1;P2;durP2;ratioP2
18114;SDS011;9184;54.390;18.620;2024-01-25T00:00:23;8.77;;;1.90;;
18114;SDS011;9184;54.390;18.620;2024-01-25T00:00:53;8.97;;;2.23;;
18114;SDS011;9184;54.390;18.620;2024-01-25T00:01:24;8.27;;;2.67;;
18114;SDS011;9184;54.390;18.620;2024-01-25T00:01:55;9.37;;;1.83;;
18114;SDS011;9184;54.390;18.620;2024-01-25T00:02:26;9.73;;;2.27;;
18114;SDS011;9184;54.390;18.620;2024-01-25T00:02:56;12.37;;;2.70;;
18114;SDS011;9184;54.390;18.620;2024-01-25T00:03:27;7.23;;;1.80;;
18114;SDS011;9184;54.390;18.620;2024-01-25T00:03:58;11.57;;;2.93;;
18114;SDS011;9184;54.390;18.620;2024-01-25T00:04:28;12.30;;;1.83;;
18114;SDS011;9184;54.390;18.620;2024-01-25T00:04:59;6.30;;;1.93;;
18114;SDS011;9184;54.390;18.620;2024-01-25T00:05:30;6.27;;;2.23;;
18114;SDS011;9184;54.390;18.620;2024-01-25T00:06:01;12.67;;;2.10;;
18114;SDS011;9184;54.390;18.620;2024-01-25T00:06:33;6.57;;;2.23;;
18114;SDS011;9184;54.390;18.620;2024-01-25T00:07:03;8.47;;;1.63;;
18114;SDS011;9184;54.390;18.620;2024-01-25T00:07:34;9.60;;;2.13;;
18114;SDS011;9184;54.390;18.620;2024-01-25T00:08:04;8.00;;;1.80;;
18114;SDS011;9184;54.390;18.620;2024-01-25T00:08:36;8.27;;;2.13;;
18114;SDS011;9184;54.390;18.620;2024-01-25T00:09:06;6.60;;;1.67;;
18114;SDS011;9184;54.390;18.620;2024-01-25T00:09:37;8.83;;;2.20;;
18114;SDS011;9184;54.390;18.620;2024-01-25T00:10:07;9.97;;;2.40;;
18114;SDS011;9184;54.390;18.620;2024-01-25T00:10:38;7.20;;;2.40;;
18114;SDS011;9184;54.390;18.620;2024-01-25T00:11:09;7.37;;;2.17;;
18114;SDS011;9184;54.390;18.620;2024-01-25T00:11:40;9.77;;;1.70;;
18114;SDS011;9184;54.390;18.620;2024-01-25T00:12:10;8.23;;;2.40;;
18114;SDS011;9184;54.390;18.620;2024-01-25T00:12:41;6.17;;;1.73;;
18114;SDS011;9184;54.390;18.620;2024-01-25T00:13:12;4.50;;;1.30;;
18114;SDS011;9184;54.390;18.620;2024-01-25T00:13:44;8.73;;;2.30;;
18114;SDS011;9184;54.390;18.620;2024-01-25T00:14:15;5.70;;;1.90;;
18114;SDS011;9184;54.390;18.620;2024-01-25T00:14:45;5.13;;;1.30;;
18114;SDS011;9184;54.390;18.620;2024-01-25T00:15:16;3.43;;;1.30;;
18114;SDS011;9184;54.390;18.620;2024-01-25T00:15:47;8.10;;;2.40;;
18114;SDS011;9184;54.390;18.620;2024-01-25T00:16:17;7.03;;;1.43;;
18114;SDS011;9184;54.390;18.620;2024-01-25T00:16:48;8.80;;;2.23;;
18114;SDS011;9184;54.390;18.620;2024-01-25T00:17:19;4.43;;;1.63;;
18114;SDS011;9184;54.390;18.620;2024-01-25T00:17:50;11.07;;;2.03;;
18114;SDS011;9184;54.390;18.620;2024-01-25T00:18:20;6.67;;;1.90;;
18114;SDS011;9184;54.390;18.620;2024-01-25T00:18:51;7.43;;;1.50;;
18114;SDS011;9184;54.390;18.620;2024-01-25T00:19:21;7.70;;;1.57;;
18114;SDS011;9184;54.390;18.620;2024-01-25T00:19:53;6.50;;;2.23;;
18114;SDS011;9184;54.390;18.620;2024-01-25T00:20:23;7.60;;;2.00;;
18114;SDS011;9184;54.390;18.620;2024-01-25T00:20:54;5.97;;;1.87;;
18114;SDS011;9184;54.390;18.620;2024-01-25T00:21:24;5.03;;;1.47;;
18114;SDS011;9184;54.390;18.620;2024-01-25T00:21:56;11.93;;;2.20;;
18114;SDS011;9184;54.390;18.620;2024-01-25T00:22:26;2.50;;;1.30;;
18114;SDS011;9184;54.390;18.620;2024-01-25T00:22:56;8.57;;;1.60;;
18114;SDS011;9184;54.390;18.620;2024-01-25T00:23:27;5.77;;;1.87;;
18114;SDS011;9184;54.390;18.620;2024-01-25T00:23:58;8.53;;;2.00;;
18114;SDS011;9184;54.390;18.620;2024-01-25T00:24:29;8.83;;;1.80;;
18114;SDS011;9184;54.390;18.620;2024-01-25T00:24:59;11.03;;;1.90;;
18114;SDS011;9184;54.390;18.620;2024-01-25T00:25:30;10.53;;;2.57;;
18114;SDS011;9184;54.390;18.620;2024-01-25T00:26:01;11.67;;;1.50;;
18114;SDS011;9184;54.390;18.620;2024-01-25T00:26:32;5.10;;;1.50;;
18114;SDS011;9184;54.390;18.620;2024-01-25T00:27:03;6.37;;;1.50;;
18114;SDS011;9184;54.390;18.620;2024-01-25T00:27:33;9.07;;;1.73;;
18114;SDS011;9184;54.390;18.620;2024-01-25T00:28:04;8.10;;;2.20;;
18114;SDS011;9184;54.390;18.620;2024-01-25T00:28:35;7.17;;;1.67;;
18114;SDS011;9184;54.390;18.620;2024-01-25T00:29:07;5.63;;;1.83;;
18114;SDS011;9184;54.390;18.620;2024-01-25T00:29:38;5.73;;;2.13;;
18114;SDS011;9184;54.390;18.620;2024-01-25T00:30:08;6.53;;;1.80;;
18114;SDS011;9184;54.390;18.620;2024-01-25T00:30:39;6.57;;;1.87;;
18114;SDS011;9184;54.390;18.620;2024-01-25T00:31:10;6.97;;;2.00;;
18114;SDS011;9184;54.390;18.620;2024-01-25T00:31:41;7.67;;;1.77;;
18114;SDS011;9184;54.390;18.620;2024-01-25T00:32:11;8.23;;;1.67;;
18114;SDS011;9184;54.390;18.620;2024-01-25T00:32:42;7.17;;;1.73;;
18114;SDS011;9184;54.390;18.620;2024-01-25T00:33:13;5.23;;;1.70;;
18114;SDS011;9184;54.390;18.620;2024-01-25T00:33:44;8.17;;;1.73;;
18114;SDS011;9184;54.390;18.620;2024-01-25T00:34:15;3.97;;;1.87;;
18114;SDS011;9184;54.390;18.620;2024-01-25T00:34:45;8.33;;;2.57;;
18114;SDS011;9184;54.390;18.620;2024-01-25T00:35:16;5.63;;;1.90;;
18114;SDS011;9184;54.390;18.620;2024-01-25T00:35:48;7.50;;;1.97;;
18114;SDS011;9184;54.390;18.620;2024-01-25T00:36:18;6.40;;;1.47;;
18114;SDS011;9184;54.390;18.620;2024-01-25T00:36:49;6.20;;;1.53;;
18114;SDS011;9184;54.390;18.620;2024-01-25T00:37:20;5.30;;;1.80;;
18114;SDS011;9184;54.390;18.620;2024-01-25T00:37:51;8.50;;;2.20;;
18114;SDS011;9184;54.390;18.620;2024-01-25T00:38:22;8.47;;;1.90;;
18114;SDS011;9184;54.390;18.620;2024-01-25T00:38:53;6.47;;;1.83;;
18114;SDS011;9184;54.390;18.620;2024-01-25T00:39:24;13.30;;;2.33;;
18114;SDS011;9184;54.390;18.620;2024-01-25T00:39:54;11.67;;;2.30;;
18114;SDS011;9184;54.390;18.620;2024-01-25T00:40:26;12.23;;;2.00;;
18114;SDS011;9184;54.390;18.620;2024-01-25T00:40:57;7.97;;;2.10;;
18114;SDS011;9184;54.390;18.620;2024-01-25T00:41:27;10.30;;;2.10;;
18114;SDS011;9184;54.390;18.620;2024-01-25T00:42:01;4.63;;;1.53;;
18114;SDS011;9184;54.390;18.620;2024-01-25T00:42:34;12.63;;;2.10;;
18114;SDS011;9184;54.390;18.620;2024-01-25T00:43:08;5.40;;;1.80;;
18114;SDS011;9184;54.390;18.620;2024-01-25T00:43:38;4.20;;;1.40;;
18114;SDS011;9184;54.390;18.620;2024-01-25T00:44:12;7.97;;;2.00;;
18114;SDS011;9184;54.390;18.620;2024-01-25T00:44:42;8.90;;;2.57;;
18114;SDS011;9184;54.390;18.620;2024-01-25T00:45:13;7.03;;;1.93;;
18114;SDS011;9184;54.390;18.620;2024-01-25T00:45:44;8.67;;;2.07;;
18114;SDS011;9184;54.390;18.620;2024-01-25T00:46:16;11.40;;;2.03;;
18114;SDS011;9184;54.390;18.620;2024-01-25T00:46:47;13.27;;;2.37;;
18114;SDS011;9184;54.390;18.620;2024-01-25T00:47:17;8.47;;;2.20;;
18114;SDS011;9184;54.390;18.620;2024-01-25T00:47:48;7.67;;;1.80;;
18114;SDS011;9184;54.390;18.620;2024-01-25T00:48:19;12.03;;;2.53;;
18114;SDS011;9184;54.390;18.620;2024-01-25T00:48:50;8.10;;;1.73;;
18114;SDS011;9184;54.390;18.620;2024-01-25T00:49:21;11.43;;;2.97;;
18114;SDS011;9184;54.390;18.620;2024-01-25T00:49:52;7.17;;;1.57;;
18114;SDS011;9184;54.390;18.620;2024-01-25T00:50:22;14.63;;;2.13;;
18114;SDS011;9184;54.390;18.620;2024-01-25T00:50:56;7.87;;;2.37;;
18114;SDS011;9184;54.390;18.620;2024-01-25T00:51:27;8.87;;;2.50;;
18114;SDS011;9184;54.390;18.620;2024-01-25T00:51:58;11.27;;;2.50;;
18114;SDS011;9184;54.390;18.620;2024-01-25T00:52:29;9.07;;;2.47;;
18114;SDS011;9184;54.390;18.620;2024-01-25T00:53:00;5.63;;;1.60;;
18114;SDS011;9184;54.390;18.620;2024-01-25T00:53:31;9.60;;;2.07;;
18114;SDS011;9184;54.390;18.620;2024-01-25T00:54:03;11.33;;;2.27;;
18114;SDS011;9184;54.390;18.620;2024-01-25T00:54:33;11.20;;;2.30;;
18114;SDS011;9184;54.390;18.620;2024-01-25T00:55:05;15.17;;;3.07;;
18114;SDS011;9184;54.390;18.620;2024-01-25T00:55:36;8.83;;;2.00;;
18114;SDS011;9184;54.390;18.620;2024-01-25T00:56:07;9.93;;;2.60;;
18114;SDS011;9184;54.390;18.620;2024-01-25T00:56:38;13.97;;;2.53;;
18114;SDS011;9184;54.390;18.620;2024-01-25T00:57:10;6.07;;;2.03;;
18114;SDS011;9184;54.390;18.620;2024-01-25T00:57:41;8.60;;;1.90;;
18114;SDS011;9184;54.390;18.620;2024-01-25T00:58:12;12.10;;;2.50;;
18114;SDS011;9184;54.390;18.620;2024-01-25T00:58:42;11.60;;;2.70;;
18114;SDS011;9184;54.390;18.620;2024-01-25T00:59:15;6.83;;;1.83;;
18114;SDS011;9184;54.390;18.620;2024-01-25T00:59:47;9.10;;;2.03;;
18114;SDS011;9184;54.390;18.620;2024-01-25T01:00:17;11.07;;;2.67;;
18114;SDS011;9184;54.390;18.620;2024-01-25T01:00:48;11.13;;;2.43;;
18114;SDS011;9184;54.390;18.620;2024-01-25T01:01:19;10.50;;;2.33;;
18114;SDS011;9184;54.390;18.620;2024-01-25T01:01:52;12.90;;;2.67;;
18114;SDS011;9184;54.390;18.620;2024-01-25T01:02:23;7.60;;;2.47;;
18114;SDS011;9184;54.390;18.620;2024-01-25T01:02:54;9.57;;;3.13;;
18114;SDS011;9184;54.390;18.620;2024-01-25T01:03:25;14.33;;;2.57;;
18114;SDS011;9184;54.390;18.620;2024-01-25T01:03:57;9.87;;;2.50;;
18114;SDS011;9184;54.390;18.620;2024-01-25T01:04:28;9.73;;;2.67;;
18114;SDS011;9184;54.390;18.620;2024-01-25T01:04:59;8.63;;;2.47;;
18114;SDS011;9184;54.390;18.620;2024-01-25T01:05:30;11.80;;;2.23;;
18114;SDS011;9184;54.390;18.620;2024-01-25T01:06:01;13.07;;;2.20;;
18114;SDS011;9184;54.390;18.620;2024-01-25T01:06:32;8.17;;;2.30;;
18114;SDS011;9184;54.390;18.620;2024-01-25T01:07:03;10.33;;;3.23;;
18114;SDS011;9184;54.390;18.620;2024-01-25T01:07:34;8.00;;;2.10;;
18114;SDS011;9184;54.390;18.620;2024-01-25T01:08:06;13.13;;;3.23;;
18114;SDS011;9184;54.390;18.620;2024-01-25T01:08:36;12.67;;;3.03;;
18114;SDS011;9184;54.390;18.620;2024-01-25T01:09:07;15.27;;;2.87;;
18114;SDS011;9184;54.390;18.620;2024-01-25T01:09:37;8.37;;;2.70;;
18114;SDS011;9184;54.390;18.620;2024-01-25T01:10:09;14.00;;;3.03;;
18114;SDS011;9184;54.390;18.620;2024-01-25T01:10:39;9.93;;;2.73;;
18114;SDS011;9184;54.390;18.620;2024-01-25T01:11:10;12.53;;;2.43;;
18114;SDS011;9184;54.390;18.620;2024-01-25T01:11:40;13.43;;;2.80;;
18114;SDS011;9184;54.390;18.620;2024-01-25T01:12:12;10.90;;;3.13;;
18114;SDS011;9184;54.390;18.620;2024-01-25T01:12:42;11.33;;;2.63;;
18114;SDS011;9184;54.390;18.620;2024-01-25T01:13:12;12.40;;;3.30;;
18114;SDS011;9184;54.390;18.620;2024-01-25T01:13:43;7.60;;;2.43;;
18114;SDS011;9184;54.390;18.620;2024-01-25T01:14:16;13.60;;;2.87;;
18114;SDS011;9184;54.390;18.620;2024-01-25T01:14:46;13.43;;;2.87;;
18114;SDS011;9184;54.390;18.620;2024-01-25T01:15:17;9.43;;;3.10;;
18114;SDS011;9184;54.390;18.620;2024-01-25T01:15:48;8.07;;;2.53;;
18114;SDS011;9184;54.390;18.620;2024-01-25T01:16:19;12.20;;;2.47;;
18114;SDS011;9184;54.390;18.620;2024-01-25T01:16:50;14.00;;;2.73;;
18114;SDS011;9184;54.390;18.620;2024-01-25T01:17:21;11.67;;;2.63;;
18114;SDS011;9184;54.390;18.620;2024-01-25T01:17:51;11.13;;;2.60;;
18114;SDS011;9184;54.390;18.620;2024-01-25T01:18:23;16.93;;;2.43;;
18114;SDS011;9184;54.390;18.620;2024-01-25T01:18:53;10.53;;;3.07;;
18114;SDS011;9184;54.390;18.620;2024-01-25T01:19:24;14.70;;;3.80;;
18114;SDS011;9184;54.390;18.620;2024-01-25T01:19:54;15.27;;;3.07;;
18114;SDS011;9184;54.390;18.620;2024-01-25T01:20:26;11.00;;;2.57;;
18114;SDS011;9184;54.390;18.620;2024-01-25T01:20:56;17.27;;;3.43;;
18114;SDS011;9184;54.390;18.620;2024-01-25T01:21:26;15.70;;;3.83;;
18114;SDS011;9184;54.390;18.620;2024-01-25T01:21:57;10.63;;;3.20;;
18114;SDS011;9184;54.390;18.620;2024-01-25T01:22:28;9.53;;;2.30;;
18114;SDS011;9184;54.390;18.620;2024-01-25T01:22:59;14.00;;;2.50;;
18114;SDS011;9184;54.390;18.620;2024-01-25T01:23:29;15.47;;;3.53;;
18114;SDS011;9184;54.390;18.620;2024-01-25T01:24:00;12.97;;;2.87;;
18114;SDS011;9184;54.390;18.620;2024-01-25T01:24:30;9.73;;;2.57;;
18114;SDS011;9184;54.390;18.620;2024-01-25T01:25:02;15.47;;;2.70;;
18114;SDS011;9184;54.390;18.620;2024-01-25T01:25:32;16.30;;;3.43;;
18114;SDS011;9184;54.390;18.620;2024-01-25T01:26:03;17.60;;;3.73;;
18114;SDS011;9184;54.390;18.620;2024-01-25T01:26:34;14.50;;;3.10;;
18114;SDS011;9184;54.390;18.620;2024-01-25T01:27:05;14.57;;;3.23;;
18114;SDS011;9184;54.390;18.620;2024-01-25T01:27:35;19.83;;;3.80;;
18114;SDS011;9184;54.390;18.620;2024-01-25T01:28:06;15.93;;;3.53;;
18114;SDS011;9184;54.390;18.620;2024-01-25T01:28:36;11.10;;;3.00;;
18114;SDS011;9184;54.390;18.620;2024-01-25T01:29:08;15.67;;;3.23;;
18114;SDS011;9184;54.390;18.620;2024-01-25T01:29:40;15.90;;;3.80;;
18114;SDS011;9184;54.390;18.620;2024-01-25T01:30:11;12.20;;;2.83;;
18114;SDS011;9184;54.390;18.620;2024-01-25T01:30:41;13.67;;;3.77;;
18114;SDS011;9184;54.390;18.620;2024-01-25T01:31:13;15.27;;;3.33;;
18114;SDS011;9184;54.390;18.620;2024-01-25T01:31:44;15.07;;;3.80;;
18114;SDS011;9184;54.390;18.620;2024-01-25T01:32:14;18.90;;;4.40;;
18114;SDS011;9184;54.390;18.620;2024-01-25T01:32:45;9.97;;;3.23;;
18114;SDS011;9184;54.390;18.620;2024-01-25T01:33:16;16.47;;;4.13;;
18114;SDS011;9184;54.390;18.620;2024-01-25T01:33:47;18.50;;;3.80;;
18114;SDS011;9184;54.390;18.620;2024-01-25T01:34:17;19.63;;;3.53;;
18114;SDS011;9184;54.390;18.620;2024-01-25T01:34:48;12.90;;;3.80;;
18114;SDS011;9184;54.390;18.620;2024-01-25T01:35:19;14.40;;;3.17;;
18114;SDS011;9184;54.390;18.620;2024-01-25T01:35:49;16.33;;;3.10;;
18114;SDS011;9184;54.390;18.620;2024-01-25T01:36:20;19.13;;;3.70;;
18114;SDS011;9184;54.390;18.620;2024-01-25T01:36:50;16.10;;;3.57;;
18114;SDS011;9184;54.390;18.620;2024-01-25T01:37:21;17.67;;;3.60;;
18114;SDS011;9184;54.390;18.620;2024-01-25T01:37:52;18.73;;;4.67;;
18114;SDS011;9184;54.390;18.620;2024-01-25T01:38:23;14.20;;;3.07;;
18114;SDS011;9184;54.390;18.620;2024-01-25T01:38:53;14.33;;;3.67;;
18114;SDS011;9184;54.390;18.620;2024-01-25T01:39:24;16.07;;;3.33;;
18114;SDS011;9184;54.390;18.620;2024-01-25T01:39:56;20.17;;;3.93;;
18114;SDS011;9184;54.390;18.620;2024-01-25T01:40:28;18.73;;;4.20;;
18114;SDS011;9184;54.390;18.620;2024-01-25T01:40:58;18.77;;;3.37;;
18114;SDS011;9184;54.390;18.620;2024-01-25T01:41:29;11.50;;;3.73;;
18114;SDS011;9184;54.390;18.620;2024-01-25T01:42:00;17.33;;;3.67;;
18114;SDS011;9184;54.390;18.620;2024-01-25T01:42:31;14.90;;;4.00;;
18114;SDS011;9184;54.390;18.620;2024-01-25T01:43:01;21.37;;;3.80;;
18114;SDS011;9184;54.390;18.620;2024-01-25T01:43:32;27.30;;;4.43;;
18114;SDS011;9184;54.390;18.620;2024-01-25T01:44:02;10.73;;;3.23;;
18114;SDS011;9184;54.390;18.620;2024-01-25T01:44:34;18.53;;;4.00;;
18114;SDS011;9184;54.390;18.620;2024-01-25T01:45:06;16.47;;;3.77;;
18114;SDS011;9184;54.390;18.620;2024-01-25T01:45:37;16.27;;;4.33;;
18114;SDS011;9184;54.390;18.620;2024-01-25T01:46:09;23.67;;;4.17;;
18114;SDS011;9184;54.390;18.620;2024-01-25T01:46:40;14.33;;;3.40;;
18114;SDS011;9184;54.390;18.620;2024-01-25T01:47:13;26.50;;;4.60;;
18114;SDS011;9184;54.390;18.620;2024-01-25T01:47:43;21.60;;;3.73;;
18114;SDS011;9184;54.390;18.620;2024-01-25T01:48:13;20.77;;;4.60;;
18114;SDS011;9184;54.390;18.620;2024-01-25T01:48:44;16.97;;;3.73;;
18114;SDS011;9184;54.390;18.620;2024-01-25T01:49:15;16.20;;;4.00;;
18114;SDS011;9184;54.390;18.620;2024-01-25T01:49:46;23.37;;;4.20;;
18114;SDS011;9184;54.390;18.620;2024-01-25T01:50:17;14.30;;;3.90;;
18114;SDS011;9184;54.390;18.620;2024-01-25T01:50:48;26.73;;;4.73;;
18114;SDS011;9184;54.390;18.620;2024-01-25T01:51:18;20.33;;;4.07;;
18114;SDS011;9184;54.390;18.620;2024-01-25T01:51:49;19.40;;;4.77;;
18114;SDS011;9184;54.390;18.620;2024-01-25T01:52:20;21.37;;;4.20;;
18114;SDS011;9184;54.390;18.620;2024-01-25T01:52:51;21.80;;;5.03;;
18114;SDS011;9184;54.390;18.620;2024-01-25T01:53:22;23.60;;;5.20;;
18114;SDS011;9184;54.390;18.620;2024-01-25T01:53:52;24.97;;;5.27;;
18114;SDS011;9184;54.390;18.620;2024-01-25T01:54:23;25.83;;;5.47;;
18114;SDS011;9184;54.390;18.620;2024-01-25T01:54:55;18.23;;;4.13;;
18114;SDS011;9184;54.390;18.620;2024-01-25T01:55:26;24.67;;;5.33;;
18114;SDS011;9184;54.390;18.620;2024-01-25T01:55:56;22.90;;;5.03;;
18114;SDS011;9184;54.390;18.620;2024-01-25T01:56:27;23.43;;;5.47;;
18114;SDS011;9184;54.390;18.620;2024-01-25T01:56:59;26.70;;;5.43;;
18114;SDS011;9184;54.390;18.620;2024-01-25T01:57:29;22.60;;;4.87;;
18114;SDS011;9184;54.390;18.620;2024-01-25T01:58:00;25.07;;;4.63;;
18114;SDS011;9184;54.390;18.620;2024-01-25T01:58:30;27.07;;;5.10;;
18114;SDS011;9184;54.390;18.620;2024-01-25T01:59:02;25.10;;;4.43;;
18114;SDS011;9184;54.390;18.620;2024-01-25T01:59:34;23.37;;;5.13;;
18114;SDS011;9184;54.390;18.620;2024-01-25T02:00:07;20.17;;;5.00;;
18114;SDS011;9184;54.390;18.620;2024-01-25T02:00:38;25.83;;;6.10;;
18114;SDS011;9184;54.390;18.620;2024-01-25T02:01:11;29.87;;;5.37;;
18114;SDS011;9184;54.390;18.620;2024-01-25T02:01:43;19.90;;;4.63;;
18114;SDS011;9184;54.390;18.620;2024-01-25T02:02:13;20.40;;;4.83;;
18114;SDS011;9184;54.390;18.620;2024-01-25T02:02:44;32.63;;;4.93;;
18114;SDS011;9184;54.390;18.620;2024-01-25T02:03:16;25.77;;;5.30;;
18114;SDS011;9184;54.390;18.620;2024-01-25T02:03:46;26.03;;;4.87;;
18114;SDS011;9184;54.390;18.620;2024-01-25T02:04:17;28.40;;;6.30;;
18114;SDS011;9184;54.390;18.620;2024-01-25T02:04:47;29.40;;;4.93;;
18114;SDS011;9184;54.390;18.620;2024-01-25T02:05:18;30.10;;;4.93;;
18114;SDS011;9184;54.390;18.620;2024-01-25T02:05:49;26.60;;;5.40;;
18114;SDS011;9184;54.390;18.620;2024-01-25T02:06:19;26.37;;;4.57;;
18114;SDS011;9184;54.390;18.620;2024-01-25T02:06:51;33.13;;;4.97;;
18114;SDS011;9184;54.390;18.620;2024-01-25T02:07:22;24.73;;;4.67;;
18114;SDS011;9184;54.390;18.620;2024-01-25T02:07:52;23.43;;;5.37;;
18114;SDS011;9184;54.390;18.620;2024-01-25T02:08:24;20.40;;;4.70;;
18114;SDS011;9184;54.390;18.620;2024-01-25T02:08:57;28.70;;;5.30;;
18114;SDS011;9184;54.390;18.620;2024-01-25T02:09:28;34.73;;;5.63;;
18114;SDS011;9184;54.390;18.620;2024-01-25T02:09:59;23.27;;;4.93;;
18114;SDS011;9184;54.390;18.620;2024-01-25T02:10:29;19.17;;;4.70;;
18114;SDS011;9184;54.390;18.620;2024-01-25T02:11:01;21.43;;;3.73;;
18114;SDS011;9184;54.390;18.620;2024-01-25T02:11:32;23.93;;;4.80;;
18114;SDS011;9184;54.390;18.620;2024-01-25T02:12:03;19.97;;;4.90;;
18114;SDS011;9184;54.390;18.620;2024-01-25T02:12:33;22.10;;;4.60;;
18114;SDS011;9184;54.390;18.620;2024-01-25T02:13:04;20.70;;;4.27;;
18114;SDS011;9184;54.390;18.620;2024-01-25T02:13:35;13.73;;;3.27;;
18114;SDS011;9184;54.390;18.620;2024-01-25T02:14:05;21.13;;;4.57;;
18114;SDS011;9184;54.390;18.620;2024-01-25T02:14:40;16.40;;;4.10;;
18114;SDS011;9184;54.390;18.620;2024-01-25T02:15:12;21.83;;;4.00;;
18114;SDS011;9184;54.390;18.620;2024-01-25T02:15:43;19.57;;;4.40;;
18114;SDS011;9184;54.390;18.620;2024-01-25T02:16:14;22.20;;;4.40;;
18114;SDS011;9184;54.390;18.620;2024-01-25T02:16:45;21.07;;;4.27;;
18114;SDS011;9184;54.390;18.620;2024-01-25T02:17:16;26.27;;;5.40;;
18114;SDS011;9184;54.390;18.620;2024-01-25T02:17:48;26.33;;;4.60;;
18114;SDS011;9184;54.390;18.620;2024-01-25T02:18:19;23.90;;;4.63;;
18114;SDS011;9184;54.390;18.620;2024-01-25T02:18:49;22.17;;;4.40;;
18114;SDS011;9184;54.390;18.620;2024-01-25T02:19:20;19.93;;;4.60;;
18114;SDS011;9184;54.390;18.620;2024-01-25T02:19:51;38.00;;;6.07;;
18114;SDS011;9184;54.390;18.620;2024-01-25T02:20:21;21.47;;;4.67;;
18114;SDS011;9184;54.390;18.620;2024-01-25T02:20:52;17.87;;;5.07;;
18114;SDS011;9184;54.390;18.620;2024-01-25T02:21:22;22.63;;;4.73;;
18114;SDS011;9184;54.390;18.620;2024-01-25T02:21:54;15.17;;;3.93;;
18114;SDS011;9184;54.390;18.620;2024-01-25T02:22:27;22.43;;;4.23;;
18114;SDS011;9184;54.390;18.620;2024-01-25T02:22:57;22.40;;;4.27;;
18114;SDS011;9184;54.390;18.620;2024-01-25T02:23:29;18.93;;;4.57;;
18114;SDS011;9184;54.390;18.620;2024-01-25T02:23:59;23.40;;;4.37;;
18114;SDS011;9184;54.390;18.620;2024-01-25T02:24:30;25.17;;;4.67;;
18114;SDS011;9184;54.390;18.620;2024-01-25T02:25:00;21.03;;;4.33;;
18114;SDS011;9184;54.390;18.620;2024-01-25T02:25:31;16.03;;;5.00;;
18114;SDS011;9184;54.390;18.620;2024-01-25T02:26:02;23.87;;;4.43;;
18114;SDS011;9184;54.390;18.620;2024-01-25T02:26:32;24.00;;;5.23;;
18114;SDS011;9184;54.390;18.620;2024-01-25T02:27:03;19.23;;;4.53;;
18114;SDS011;9184;54.390;18.620;2024-01-25T02:27:35;21.90;;;4.30;;
18114;SDS011;9184;54.390;18.620;2024-01-25T02:28:08;26.60;;;5.57;;
18114;SDS011;9184;54.390;18.620;2024-01-25T02:28:39;24.20;;;4.40;;
18114;SDS011;9184;54.390;18.620;2024-01-25T02:29:09;26.23;;;4.07;;
18114;SDS011;9184;54.390;18.620;2024-01-25T02:29:41;17.80;;;4.23;;
18114;SDS011;9184;54.390;18.620;2024-01-25T02:30:11;19.70;;;3.93;;
18114;SDS011;9184;54.390;18.620;2024-01-25T02:30:41;17.13;;;3.63;;
18114;SDS011;9184;54.390;18.620;2024-01-25T02:31:12;12.23;;;3.77;;
18114;SDS011;9184;54.390;18.620;2024-01-25T02:31:43;18.67;;;4.17;;
18114;SDS011;9184;54.390;18.620;2024-01-25T02:32:14;10.60;;;4.13;;
18114;SDS011;9184;54.390;18.620;2024-01-25T02:32:44;15.57;;;4.47;;
18114;SDS011;9184;54.390;18.620;2024-01-25T02:33:15;19.73;;;4.07;;
18114;SDS011;9184;54.390;18.620;2024-01-25T02:33:46;17.87;;;3.93;;
18114;SDS011;9184;54.390;18.620;2024-01-25T02:34:17;22.93;;;4.43;;
18114;SDS011;9184;54.390;18.620;2024-01-25T02:34:47;25.30;;;4.80;;
18114;SDS011;9184;54.390;18.620;2024-01-25T02:35:18;20.37;;;4.67;;
18114;SDS011;9184;54.390;18.620;2024-01-25T02:35:49;21.90;;;3.90;;
18114;SDS011;9184;54.390;18.620;2024-01-25T02:36:21;17.40;;;4.40;;
18114;SDS011;9184;54.390;18.620;2024-01-25T02:36:52;17.07;;;4.90;;
18114;SDS011;9184;54.390;18.620;2024-01-25T02:37:22;24.53;;;4.23;;
18114;SDS011;9184;54.390;18.620;2024-01-25T02:37:54;18.67;;;4.20;;
18114;SDS011;9184;54.390;18.620;2024-01-25T02:38:25;24.40;;;4.73;;
18114;SDS011;9184;54.390;18.620;2024-01-25T02:38:56;20.47;;;4.43;;
18114;SDS011;9184;54.390;18.620;2024-01-25T02:39:26;18.93;;;4.37;;
18114;SDS011;9184;54.390;18.620;2024-01-25T02:39:57;20.73;;;3.80;;
18114;SDS011;9184;54.390;18.620;2024-01-25T02:40:28;14.53;;;3.67;;
18114;SDS011;9184;54.390;18.620;2024-01-25T02:40:59;16.33;;;3.23;;
18114;SDS011;9184;54.390;18.620;2024-01-25T02:41:29;20.27;;;4.03;;
18114;SDS011;9184;54.390;18.620;2024-01-25T02:41:59;18.57;;;3.63;;
18114;SDS011;9184;54.390;18.620;2024-01-25T02:42:30;19.20;;;4.27;;
18114;SDS011;9184;54.390;18.620;2024-01-25T02:43:01;20.90;;;4.47;;
18114;SDS011;9184;54.390;18.620;2024-01-25T02:43:32;20.57;;;3.53;;
18114;SDS011;9184;54.390;18.620;2024-01-25T02:44:03;14.93;;;3.37;;
18114;SDS011;9184;54.390;18.620;2024-01-25T02:44:33;20.47;;;4.33;;
18114;SDS011;9184;54.390;18.620;2024-01-25T02:45:05;15.87;;;3.50;;
18114;SDS011;9184;54.390;18.620;2024-01-25T02:45:35;19.47;;;4.03;;
18114;SDS011;9184;54.390;18.620;2024-01-25T02:46:06;14.13;;;3.23;;
18114;SDS011;9184;54.390;18.620;2024-01-25T02:46:37;22.20;;;3.60;;
18114;SDS011;9184;54.390;18.620;2024-01-25T02:47:08;17.10;;;3.27;;
18114;SDS011;9184;54.390;18.620;2024-01-25T02:47:39;19.77;;;4.17;;
18114;SDS011;9184;54.390;18.620;2024-01-25T02:48:10;15.67;;;3.37;;
18114;SDS011;9184;54.390;18.620;2024-01-25T02:48:40;15.33;;;2.90;;
18114;SDS011;9184;54.390;18.620;2024-01-25T02:49:10;16.80;;;3.53;;
18114;SDS011;9184;54.390;18.620;2024-01-25T02:49:41;14.30;;;3.53;;
18114;SDS011;9184;54.390;18.620;2024-01-25T02:50:12;17.77;;;3.57;;
18114;SDS011;9184;54.390;18.620;2024-01-25T02:50:43;16.83;;;4.13;;
18114;SDS011;9184;54.390;18.620;2024-01-25T02:51:13;16.10;;;3.93;;
18114;SDS011;9184;54.390;18.620;2024-01-25T02:51:44;16.17;;;3.40;;
18114;SDS011;9184;54.390;18.620;2024-01-25T02:52:15;14.77;;;3.37;;
18114;SDS011;9184;54.390;18.620;2024-01-25T02:52:46;11.17;;;2.77;;
18114;SDS011;9184;54.390;18.620;2024-01-25T02:53:18;14.60;;;3.17;;
18114;SDS011;9184;54.390;18.620;2024-01-25T02:53:48;13.90;;;3.70;;
18114;SDS011;9184;54.390;18.620;2024-01-25T02:54:19;9.07;;;2.47;;
18114;SDS011;9184;54.390;18.620;2024-01-25T02:54:50;12.77;;;3.13;;
18114;SDS011;9184;54.390;18.620;2024-01-25T02:55:21;19.33;;;3.40;;
18114;SDS011;9184;54.390;18.620;2024-01-25T02:55:51;20.63;;;3.63;;
18114;SDS011;9184;54.390;18.620;2024-01-25T02:56:22;16.30;;;3.23;;
18114;SDS011;9184;54.390;18.620;2024-01-25T02:56:53;17.17;;;3.73;;
18114;SDS011;9184;54.390;18.620;2024-01-25T02:57:25;18.80;;;3.90;;
18114;SDS011;9184;54.390;18.620;2024-01-25T02:57:56;18.73;;;3.70;;
18114;SDS011;9184;54.390;18.620;2024-01-25T02:58:26;20.03;;;4.03;;
18114;SDS011;9184;54.390;18.620;2024-01-25T02:58:58;20.67;;;4.03;;
18114;SDS011;9184;54.390;18.620;2024-01-25T02:59:28;13.03;;;3.00;;
18114;SDS011;9184;54.390;18.620;2024-01-25T02:59:58;15.53;;;3.53;;
18114;SDS011;9184;54.390;18.620;2024-01-25T03:00:29;12.90;;;3.33;;
18114;SDS011;9184;54.390;18.620;2024-01-25T03:00:59;14.77;;;3.90;;
18114;SDS011;9184;54.390;18.620;2024-01-25T03:01:37;18.77;;;3.37;;
18114;SDS011;9184;54.390;18.620;2024-01-25T03:02:07;12.50;;;2.90;;
18114;SDS011;9184;54.390;18.620;2024-01-25T03:02:37;17.43;;;3.53;;
18114;SDS011;9184;54.390;18.620;2024-01-25T03:03:08;18.70;;;3.17;;
18114;SDS011;9184;54.390;18.620;2024-01-25T03:03:39;14.47;;;3.07;;
18114;SDS011;9184;54.390;18.620;2024-01-25T03:04:10;15.73;;;3.33;;
18114;SDS011;9184;54.390;18.620;2024-01-25T03:04:40;16.37;;;3.53;;